createdAt,value
2022-12-03T00:03:48.217Z,71
2022-12-03T00:13:48.216Z,71
2022-12-03T00:23:48.090Z,71
2022-12-03T00:33:48.198Z,71.5
2022-12-03T00:43:48.079Z,71.5
2022-12-03T00:53:48.199Z,71.5
2022-12-03T01:03:48.108Z,71.5
2022-12-03T01:13:48.231Z,71.5
2022-12-03T01:23:48.085Z,71.5
2022-12-03T01:33:48.227Z,71.5
2022-12-03T01:43:48.092Z,71.5
2022-12-03T01:53:48.224Z,71.5
2022-12-03T02:03:48.339Z,71.5
2022-12-03T02:13:48.209Z,71
2022-12-03T02:23:48.281Z,71
2022-12-03T02:33:48.199Z,71
2022-12-03T02:43:48.274Z,71
2022-12-03T02:53:48.197Z,71
2022-12-03T03:03:48.270Z,71
2022-12-03T03:13:48.402Z,71
2022-12-03T03:23:48.276Z,71
2022-12-03T03:33:48.400Z,71
2022-12-03T03:43:48.273Z,71
2022-12-03T03:53:48.403Z,70.5
2022-12-03T04:03:48.338Z,61.5
2022-12-03T04:13:48.398Z,63
2022-12-03T04:23:48.282Z,65
2022-12-03T04:33:48.396Z,66.5
2022-12-03T04:43:48.260Z,67.5
2022-12-03T04:53:48.378Z,68.5
2022-12-03T05:03:48.456Z,56
2022-12-03T05:13:48.400Z,57.5
2022-12-03T05:23:48.453Z,60
2022-12-03T05:33:48.361Z,63
2022-12-03T05:43:48.466Z,58.5
2022-12-03T05:53:48.373Z,52
2022-12-03T06:03:48.672Z,55.5
2022-12-03T06:13:48.572Z,58.5
2022-12-03T06:23:48.445Z,57.5
2022-12-03T06:33:48.560Z,50
2022-12-03T06:43:48.444Z,53
2022-12-03T06:53:48.565Z,56.5
2022-12-03T07:03:48.438Z,58
2022-12-03T07:13:48.552Z,50
2022-12-03T07:23:48.428Z,53
2022-12-03T07:33:48.547Z,56
2022-12-03T07:43:48.619Z,54
2022-12-03T07:53:48.533Z,48.5
2022-12-03T08:03:48.615Z,47
2022-12-03T08:13:48.549Z,46.5
2022-12-03T08:23:48.619Z,50
2022-12-03T08:33:48.529Z,54
2022-12-03T08:43:48.608Z,56.5
2022-12-03T08:53:48.535Z,55
2022-12-03T09:03:48.650Z,47
2022-12-03T09:13:48.742Z,50
2022-12-03T09:23:48.607Z,54
2022-12-03T09:33:48.747Z,57
2022-12-03T09:44:03.717Z,59
2022-12-03T09:53:48.726Z,60.5
2022-12-03T10:03:48.726Z,61.5
2022-12-03T10:13:48.639Z,51
2022-12-03T10:23:53.757Z,53
2022-12-03T10:33:48.695Z,56
2022-12-03T10:43:48.765Z,57.5
2022-12-03T10:53:48.686Z,59
2022-12-03T11:03:48.847Z,59.5
2022-12-03T11:13:48.677Z,59.5
2022-12-03T11:23:48.750Z,59.5
2022-12-03T11:33:48.872Z,58
2022-12-03T11:43:48.755Z,62.5
2022-12-03T11:53:48.870Z,62.5
2022-12-03T12:03:48.953Z,60.5
2022-12-03T12:13:48.870Z,63
2022-12-03T12:23:48.742Z,63.5
2022-12-03T12:33:48.860Z,64.5
2022-12-03T12:43:48.940Z,64.5
2022-12-03T12:53:48.870Z,65
2022-12-03T13:03:48.938Z,61.5
2022-12-03T13:13:48.848Z,58.5
2022-12-03T13:23:48.936Z,57
2022-12-03T13:33:48.858Z,61.5
2022-12-03T13:43:49.002Z,64.5
2022-12-03T13:53:48.837Z,63.5
2022-12-03T14:03:48.916Z,65
2022-12-03T14:13:49.062Z,58.5
2022-12-03T14:23:48.925Z,59.5
2022-12-03T14:33:49.038Z,61.5
2022-12-03T14:43:48.910Z,64.5
2022-12-03T14:53:49.143Z,66.5
2022-12-03T15:03:48.900Z,68
2022-12-03T15:13:49.029Z,69
2022-12-03T15:23:49.110Z,70
2022-12-03T15:33:49.020Z,70.5
2022-12-03T15:43:49.105Z,71.5
2022-12-03T15:53:49.013Z,72
2022-12-03T16:03:49.112Z,66.5
2022-12-03T16:13:49.022Z,58.5
2022-12-03T16:23:49.662Z,61.5
2022-12-03T16:33:49.162Z,64
2022-12-03T16:43:49.029Z,66
2022-12-03T16:53:49.155Z,67.5
2022-12-03T17:03:49.030Z,69
2022-12-03T17:13:49.156Z,70
2022-12-03T17:23:49.063Z,57
2022-12-03T17:33:49.147Z,58
2022-12-03T17:43:49.045Z,61
2022-12-03T17:53:49.149Z,63.5
2022-12-03T18:03:49.285Z,65.5
2022-12-03T18:13:49.151Z,67
2022-12-03T18:23:49.221Z,56.5
2022-12-03T18:33:49.154Z,55.5
2022-12-03T18:43:49.232Z,59.5
2022-12-03T18:53:49.147Z,62
2022-12-03T19:03:49.239Z,64
2022-12-03T19:13:49.148Z,52.5
2022-12-03T19:24:16.307Z,53
2022-12-03T19:33:49.358Z,56.5
2022-12-03T19:43:49.233Z,59.5
2022-12-03T19:53:49.342Z,62
2022-12-03T20:03:49.220Z,63.5
2022-12-03T20:13:49.337Z,61
2022-12-03T20:23:49.233Z,52.5
2022-12-03T20:33:49.345Z,55.5
2022-12-03T20:43:49.213Z,58
2022-12-03T20:53:49.339Z,60.5
2022-12-03T21:03:49.421Z,62.5
2022-12-03T21:13:49.338Z,63.5
2022-12-03T21:23:49.419Z,64.5
2022-12-03T21:33:49.321Z,65
2022-12-03T21:43:49.397Z,53
2022-12-03T21:53:49.332Z,53.5
2022-12-03T22:03:49.401Z,56.5
2022-12-03T22:13:49.518Z,58.5
2022-12-03T22:23:49.399Z,61
2022-12-03T22:33:49.509Z,62.5
2022-12-03T22:43:49.422Z,63.5
2022-12-03T22:53:49.518Z,64
2022-12-03T23:03:49.614Z,64.5
2022-12-03T23:13:49.505Z,65
2022-12-03T23:23:49.387Z,65.5
2022-12-03T23:33:49.558Z,65.5
2022-12-03T23:43:49.581Z,66
2022-12-03T23:53:49.498Z,66
